LiveATC.Net - Listen to live air traffic control over the Internet! Contact LiveATC.net for advertising information


ICAO: SUMU  IATA: MVD   Airport: Carrasco General Cesareo L. Berisso International Airport
City: Montevideo
Country: Uruguay   Continent: South America
SUMU METAR Weather: SUMU 081400Z 32010KT 9999 FEW030 BKN100 28/22 Q1009 TEMPO -RA
SUMU Flight Activity (FlightAware)
SUMU Twr/App
Feed Status: UP   Listeners: 6
Listen right in your browser - requires Flash (in browser, requires Flash)
Click here to listen with your own player (launches your MP3 player)
SUMU Twr/App Audio Archives
FacilityFrequency
SUMU Approach119.200
SUMU Tower118.100

Sponsored by Aeroclub Aerosur - Escuela de Vuelo

NOTICE

Unauthorized use prohibited. See LiveATC.net Terms of Service


Find LiveATC Audio Streams


Airport/ARTCC Code

Frequency
(e.g., 124.400, 128.75)
Site-wide search

Browse LiveATC Feeds
LiveATC Coverage Map
Top 50 LiveATC Feeds
Bad Weather Areas

LiveATC FAQ
Offer a LiveATC Feed
Contact LiveATC.net
Press Inquiries

LiveATC on iPhone
LiveATC on Android

Windows Phone
Windows 8/10

LiveATC Mobile
(Mobile browser)

ATC Audio Archives
Interesting Recordings

LiveATC Forums


Home Page
About LiveATC.net
Make a Donation
LiveATC Store

Terms of Use
Privacy Policy

Canadian Air Freqs

AIRMETs/SIGMETs

FAA Airport Status
Nat'l Airspace Status
Arrival Demand Charts


Server Software By:
Icecast.org
Liquidsoap

Please make a donation to help us keep growing!